Time;durP1;ratioP1;P1;durP2;ratioP2;P2;SDS_P1;SDS_P2;PMS_P1;PMS_P2;Temp;Humidity;BMP_temperature;BMP_pressure;BME280_temperature;BME280_humidity;BME280_pressure;Samples;Min_cycle;Max_cycle;Signal;HPM_P1;HPM_P2
2023/05/30 00:00:58;;;;;;;11.57;3.78;;;;;;;8.35;100.00;102347.91;10467204;28;20384;-79
2023/05/30 00:05:58;;;;;;;12.00;3.97;;;;;;;8.21;100.00;102349.41;10482368;28;20068;-79
2023/05/30 00:10:59;;;;;;;10.35;4.90;;;;;;;8.25;100.00;102350.56;10484551;28;20139;-79
2023/05/30 00:16:00;;;;;;;10.07;5.18;;;;;;;8.14;100.00;102357.53;10482951;28;20125;-79
2023/05/30 00:21:03;;;;;;;13.43;4.57;;;;;;;8.01;100.00;102351.31;10466701;28;20071;-79
2023/05/30 00:26:05;;;;;;;9.68;3.83;;;;;;;7.88;100.00;102359.81;10469641;28;20055;-79
2023/05/30 00:31:05;;;;;;;19.55;5.53;;;;;;;7.76;100.00;102367.53;10484051;28;20032;-79
2023/05/30 00:36:06;;;;;;;14.18;3.33;;;;;;;7.60;100.00;102372.25;10482144;28;20036;-78
2023/05/30 00:41:07;;;;;;;14.75;4.82;;;;;;;7.48;100.00;102382.53;10483161;28;20033;-78
2023/05/30 00:46:07;;;;;;;16.73;4.00;;;;;;;7.37;100.00;102386.84;10482887;28;20173;-78
2023/05/30 00:51:08;;;;;;;13.02;3.63;;;;;;;7.32;100.00;102393.38;10482332;28;20105;-78
2023/05/30 00:56:09;;;;;;;11.77;3.50;;;;;;;7.22;100.00;102390.75;10472182;28;20045;-78
2023/05/30 01:01:10;;;;;;;12.88;4.20;;;;;;;7.19;100.00;102391.38;10423019;28;20045;-78
2023/05/30 01:06:10;;;;;;;13.95;4.47;;;;;;;7.16;100.00;102396.31;10488596;28;20127;-78
2023/05/30 01:11:15;;;;;;;11.10;4.10;;;;;;;7.05;100.00;102383.28;10490935;28;20060;-78
2023/05/30 01:16:17;;;;;;;17.48;5.78;;;;;;;7.17;100.00;102392.94;10491080;28;20439;-78
2023/05/30 01:21:18;;;;;;;;;;;;;;;7.25;100.00;102391.91;10493252;28;20099;-78
2023/05/30 01:26:24;;;;;;;12.10;3.15;;;;;;;7.24;100.00;102383.97;10480273;28;20394;-78
2023/05/30 01:31:24;;;;;;;20.55;6.60;;;;;;;7.27;100.00;102389.44;10491430;28;20040;-79
2023/05/30 01:36:27;;;;;;;17.75;4.63;;;;;;;7.15;100.00;102389.28;10489534;28;20123;-78
2023/05/30 01:41:44;;;;;;;21.90;6.22;;;;;;;7.23;100.00;102398.69;10473519;28;20090;-78
2023/05/30 01:46:55;;;;;;;23.58;6.25;;;;;;;7.18;100.00;102410.41;10464129;28;20041;-78
2023/05/30 01:52:06;;;;;;;13.80;4.07;;;;;;;7.11;100.00;102410.66;10456175;28;20040;-78
2023/05/30 01:57:12;;;;;;;11.07;3.40;;;;;;;7.10;100.00;102401.94;10505888;28;20506;-78
2023/05/30 02:02:13;;;;;;;13.35;4.05;;;;;;;6.95;100.00;102414.53;10487854;28;20041;-78
2023/05/30 02:07:13;;;;;;;15.68;3.70;;;;;;;6.78;100.00;102417.34;10503176;28;20064;-78
2023/05/30 02:12:13;;;;;;;20.02;8.27;;;;;;;6.76;100.00;102414.63;10486185;28;20390;-78
2023/05/30 02:17:15;;;;;;;19.02;4.65;;;;;;;6.65;100.00;102418.84;10489851;28;20125;-79
2023/05/30 02:22:16;;;;;;;17.70;4.78;;;;;;;6.59;100.00;102423.50;10489506;28;20045;-78
2023/05/30 02:27:17;;;;;;;13.63;4.70;;;;;;;6.53;100.00;102422.97;10487337;28;20093;-78
2023/05/30 02:32:17;;;;;;;9.98;4.53;;;;;;;6.48;100.00;102425.19;10470302;28;20387;-78
2023/05/30 02:37:17;;;;;;;20.13;7.45;;;;;;;6.57;100.00;102420.78;10486807;28;20119;-78
2023/05/30 02:42:18;;;;;;;17.15;5.28;;;;;;;6.53;100.00;102431.69;10470767;28;20059;-78
2023/05/30 02:47:18;;;;;;;18.30;4.53;;;;;;;6.50;100.00;102439.22;10486061;28;20478;-78
2023/05/30 02:52:19;;;;;;;12.10;4.72;;;;;;;6.46;100.00;102443.22;10486496;28;20540;-78
2023/05/30 02:57:21;;;;;;;14.90;4.32;;;;;;;6.34;100.00;102447.34;10487154;28;20127;-78
2023/05/30 03:02:21;;;;;;;17.50;8.37;;;;;;;6.20;100.00;102447.78;10486932;28;20040;-78
2023/05/30 03:07:22;;;;;;;16.52;6.75;;;;;;;6.03;100.00;102439.34;10487324;28;20392;-79
2023/05/30 03:12:23;;;;;;;26.02;9.35;;;;;;;5.92;100.00;102451.34;10487593;28;20055;-78
2023/05/30 03:17:24;;;;;;;18.55;5.70;;;;;;;5.93;100.00;102449.63;10486646;28;20511;-78
2023/05/30 03:22:24;;;;;;;17.63;5.57;;;;;;;5.89;100.00;102461.47;10467491;28;20121;-78
2023/05/30 03:27:25;;;;;;;16.80;6.25;;;;;;;5.88;100.00;102457.03;10485049;28;20037;-78
2023/05/30 03:32:25;;;;;;;14.98;6.03;;;;;;;5.97;100.00;102469.94;10456022;28;20067;-78
2023/05/30 03:37:26;;;;;;;15.00;5.53;;;;;;;6.06;100.00;102481.22;10464468;28;20067;-78
2023/05/30 03:42:27;;;;;;;14.15;6.43;;;;;;;6.09;100.00;102478.91;10476739;28;20131;-78
2023/05/30 03:47:27;;;;;;;17.67;8.07;;;;;;;6.14;100.00;102475.03;10469591;28;20041;-78
2023/05/30 03:52:28;;;;;;;20.02;7.65;;;;;;;6.32;100.00;102481.00;10483728;28;20115;-78
2023/05/30 03:57:28;;;;;;;13.15;5.90;;;;;;;6.54;100.00;102488.16;10483330;28;20075;-78
2023/05/30 04:02:29;;;;;;;14.27;6.25;;;;;;;6.63;100.00;102485.44;10501922;28;20503;-78
2023/05/30 04:07:31;;;;;;;33.22;7.70;;;;;;;6.78;100.00;102477.19;10484532;28;20113;-79
2023/05/30 04:12:31;;;;;;;18.98;6.45;;;;;;;6.95;100.00;102476.09;10448690;28;20049;-80
2023/05/30 04:17:32;;;;;;;17.42;6.72;;;;;;;7.06;100.00;102467.53;10400619;28;20435;-79
2023/05/30 04:22:32;;;;;;;18.92;6.72;;;;;;;7.26;100.00;102474.47;10424085;28;20136;-80
2023/05/30 04:27:34;;;;;;;22.65;7.03;;;;;;;7.54;100.00;102465.53;10442217;28;20040;-80
2023/05/30 04:32:35;;;;;;;19.33;5.97;;;;;;;7.77;100.00;102471.00;10440203;28;20043;-80
2023/05/30 04:37:38;;;;;;;22.50;7.53;;;;;;;8.18;100.00;102463.94;10438325;28;20049;-80
2023/05/30 04:42:40;;;;;;;23.90;7.15;;;;;;;8.48;100.00;102456.81;10442240;28;20044;-80
2023/05/30 04:47:44;;;;;;;14.02;6.28;;;;;;;8.50;100.00;102450.94;10411119;28;20043;-83
2023/05/30 04:52:45;;;;;;;18.40;7.80;;;;;;;8.56;100.00;102449.63;10424579;28;20049;-84
2023/05/30 04:57:46;;;;;;;16.27;5.83;;;;;;;8.51;100.00;102444.94;10441075;28;20044;-84
2023/05/30 05:02:46;;;;;;;16.73;7.00;;;;;;;8.84;100.00;102449.22;10442046;28;20075;-81
2023/05/30 05:07:47;;;;;;;17.00;5.85;;;;;;;9.31;100.00;102440.72;10438434;28;20044;-81
2023/05/30 05:12:47;;;;;;;16.38;5.00;;;;;;;9.82;100.00;102448.16;10441269;28;20048;-80
2023/05/30 05:17:49;;;;;;;18.17;5.32;;;;;;;10.67;100.00;102434.28;10440155;28;20041;-86
2023/05/30 05:22:50;;;;;;;20.95;5.65;;;;;;;11.41;100.00;102433.38;10426371;28;20055;-79
2023/05/30 05:27:51;;;;;;;12.50;5.60;;;;;;;12.52;100.00;102425.88;10478142;28;20204;-81
2023/05/30 05:33:02;;;;;;;;;;;;;;;;;;;;;
2023/05/30 05:38:06;;;;;;;17.90;6.85;;;;;;;12.55;100.00;102439.19;10462936;28;20541;-83
2023/05/30 05:43:06;;;;;;;14.00;5.60;;;;;;;13.83;100.00;102433.06;10490232;28;20037;-79
2023/05/30 05:48:07;;;;;;;10.77;5.32;;;;;;;14.24;100.00;102423.13;10427362;28;20033;-80
2023/05/30 05:53:07;;;;;;;11.40;4.93;;;;;;;14.84;100.00;102433.53;10433486;28;20049;-83
2023/05/30 05:58:08;;;;;;;12.77;5.68;;;;;;;16.03;100.00;102430.97;10439901;28;20101;-81
2023/05/30 06:03:08;;;;;;;15.90;5.23;;;;;;;16.04;100.00;102443.34;10441021;28;20469;-81
2023/05/30 06:08:09;;;;;;;11.93;5.22;;;;;;;16.99;97.05;102443.50;10446993;28;20033;-82
2023/05/30 06:13:09;;;;;;;12.87;6.03;;;;;;;17.07;86.20;102437.66;10407128;28;20075;-81
2023/05/30 06:18:10;;;;;;;19.67;6.57;;;;;;;17.03;82.80;102437.53;10437336;28;20032;-81
2023/05/30 06:23:10;;;;;;;21.40;4.87;;;;;;;15.91;91.66;102443.53;10454646;28;20555;-80
2023/05/30 06:28:11;;;;;;;13.45;6.32;;;;;;;16.11;93.63;102440.16;10426964;28;20045;-81
2023/05/30 06:33:11;;;;;;;15.73;5.83;;;;;;;17.67;80.22;102447.38;10440981;28;20033;-82
2023/05/30 06:38:12;;;;;;;20.90;6.63;;;;;;;18.07;75.09;102451.75;10445983;28;20135;-81
2023/05/30 06:43:13;;;;;;;22.77;5.50;;;;;;;18.48;70.13;102454.31;10422641;28;20064;-80
2023/05/30 06:48:13;;;;;;;9.67;4.67;;;;;;;17.82;71.55;102455.09;10441089;28;20037;-80
2023/05/30 06:53:14;;;;;;;15.70;5.83;;;;;;;17.73;71.61;102458.22;10440944;28;20045;-81
2023/05/30 06:58:15;;;;;;;16.53;5.80;;;;;;;18.09;72.69;102455.38;10444061;28;20116;-82
2023/05/30 07:03:15;;;;;;;17.80;6.27;;;;;;;18.95;68.02;102462.31;10431693;28;20506;-78
2023/05/30 07:08:16;;;;;;;9.37;4.50;;;;;;;19.45;60.60;102458.88;10443386;28;20552;-83
2023/05/30 07:13:16;;;;;;;23.60;7.63;;;;;;;18.88;68.07;102463.84;10473042;28;20071;-82
2023/05/30 07:18:17;;;;;;;15.40;4.67;;;;;;;19.32;63.52;102468.16;10495010;28;20144;-83
2023/05/30 07:23:17;;;;;;;17.77;6.50;;;;;;;19.91;61.66;102468.50;10468833;28;20376;-81
2023/05/30 07:28:20;;;;;;;11.73;5.53;;;;;;;20.95;58.96;102463.91;10466711;28;20063;-84
2023/05/30 07:33:20;;;;;;;14.45;5.50;;;;;;;21.86;54.92;102459.31;10506535;28;20072;-83
2023/05/30 07:38:21;;;;;;;13.70;5.00;;;;;;;22.35;51.04;102457.00;10474486;28;20037;-91
2023/05/30 07:43:21;;;;;;;8.93;4.93;;;;;;;22.52;49.38;102467.19;10468924;28;20062;-83
2023/05/30 07:48:22;;;;;;;11.90;4.70;;;;;;;22.11;50.61;102474.19;10471104;28;20045;-84
2023/05/30 07:53:22;;;;;;;9.33;4.90;;;;;;;22.29;50.50;102473.72;10446495;28;20521;-83
2023/05/30 07:58:23;;;;;;;11.13;6.50;;;;;;;22.84;49.03;102469.69;10421914;28;20049;-83
2023/05/30 08:03:25;;;;;;;19.55;5.18;;;;;;;22.57;47.76;102461.09;10425207;28;20036;-80
2023/05/30 08:08:26;;;;;;;13.95;6.82;;;;;;;22.64;47.48;102455.91;10430761;28;20458;-84
2023/05/30 08:13:27;;;;;;;15.40;5.87;;;;;;;22.63;48.66;102451.44;10442586;28;20075;-82
2023/05/30 08:18:30;;;;;;;15.83;5.63;;;;;;;22.52;49.07;102453.84;10430786;28;20037;-80
2023/05/30 08:23:30;;;;;;;21.10;10.40;;;;;;;23.22;47.05;102448.25;10432253;28;20040;-83
2023/05/30 08:28:32;;;;;;;15.43;5.67;;;;;;;22.73;48.96;102448.09;10443748;28;20128;-82
2023/05/30 08:33:34;;;;;;;14.32;5.38;;;;;;;22.86;48.50;102451.94;10441669;28;20021;-82
2023/05/30 08:38:34;;;;;;;9.05;5.55;;;;;;;24.01;48.05;102452.41;10443198;28;20033;-82
2023/05/30 08:43:35;;;;;;;9.03;4.70;;;;;;;23.94;45.67;102442.47;10443606;28;20075;-84
2023/05/30 08:48:35;;;;;;;14.03;6.33;;;;;;;23.65;47.66;102450.88;10424497;28;20120;-84
2023/05/30 08:53:38;;;;;;;15.93;6.43;;;;;;;24.17;47.48;102440.22;10441432;28;20540;-83
2023/05/30 08:58:43;;;;;;;13.02;5.53;;;;;;;24.52;45.23;102444.28;10440786;28;20068;-84
2023/05/30 09:03:44;;;;;;;12.40;5.78;;;;;;;24.73;42.41;102435.72;10442114;28;20037;-86
2023/05/30 09:08:45;;;;;;;15.80;6.07;;;;;;;24.43;43.84;102430.78;10424529;28;20037;-86
2023/05/30 09:13:46;;;;;;;13.85;5.05;;;;;;;23.89;46.33;102426.34;10424340;28;20388;-85
2023/05/30 09:18:46;;;;;;;17.93;6.10;;;;;;;24.21;43.49;102413.50;10427189;28;20044;-84
2023/05/30 09:23:47;;;;;;;21.10;6.87;;;;;;;24.44;44.69;102413.84;10448488;28;20112;-87
2023/05/30 09:28:48;;;;;;;12.63;4.80;;;;;;;24.66;44.24;102414.13;10449039;28;20510;-85
2023/05/30 09:33:52;;;;;;;10.43;5.15;;;;;;;24.41;45.21;102412.03;10449871;28;20091;-88
2023/05/30 09:39:04;;;;;;;15.32;5.20;;;;;;;25.05;42.41;102415.56;10450967;28;20516;-86
2023/05/30 09:44:05;;;;;;;15.70;6.82;;;;;;;25.62;40.85;102412.59;10433210;28;20037;-86
2023/05/30 09:49:15;;;;;;;17.07;6.30;;;;;;;25.36;41.24;102415.91;10448346;28;20033;-85
2023/05/30 09:54:15;;;;;;;17.80;5.63;;;;;;;24.70;41.59;102416.91;10450299;28;20076;-85
2023/05/30 09:59:16;;;;;;;8.53;5.70;;;;;;;24.55;42.76;102408.66;10445998;28;20033;-84
2023/05/30 10:04:17;;;;;;;9.10;5.50;;;;;;;25.09;41.33;102400.44;10447979;28;20028;-86
2023/05/30 10:09:21;;;;;;;14.05;6.03;;;;;;;25.28;43.30;102404.19;10446155;28;20048;-86
2023/05/30 10:14:22;;;;;;;13.43;6.65;;;;;;;25.64;42.54;102400.13;10469635;28;20036;-87
2023/05/30 10:19:50;;;;;;;13.57;6.07;;;;;;;25.88;41.72;102394.09;10487768;28;20131;-86
2023/05/30 10:24:50;;;;;;;14.90;6.47;;;;;;;25.92;38.52;102390.53;10474101;28;20135;-87
2023/05/30 10:29:59;;;;;;;12.63;7.57;;;;;;;25.86;39.85;102386.91;10488856;28;20411;-86
2023/05/30 10:35:06;;;;;;;9.73;6.55;;;;;;;25.60;43.12;102388.50;10488969;28;20055;-86
2023/05/30 10:40:17;;;;;;;15.73;6.07;;;;;;;25.30;40.64;102384.59;10487255;28;20533;-86
2023/05/30 10:45:19;;;;;;;15.82;8.07;;;;;;;25.38;43.44;102384.66;10487508;28;20040;-87
2023/05/30 10:50:25;;;;;;;13.48;7.30;;;;;;;25.74;38.53;102380.53;10488058;28;20032;-87
2023/05/30 10:55:28;;;;;;;10.55;6.43;;;;;;;25.45;39.30;102373.16;10471041;28;20029;-85
2023/05/30 11:00:29;;;;;;;19.00;7.43;;;;;;;25.91;41.70;102375.34;10488552;28;20025;-83
2023/05/30 11:05:33;;;;;;;12.57;6.83;;;;;;;25.72;41.92;102370.72;10470190;28;20032;-84
2023/05/30 11:10:35;;;;;;;13.98;7.03;;;;;;;24.98;41.94;102378.88;10486982;28;20097;-85
2023/05/30 11:15:36;;;;;;;12.65;7.03;;;;;;;25.41;41.01;102373.09;10485971;28;20039;-85
2023/05/30 11:20:36;;;;;;;13.13;6.10;;;;;;;25.67;43.33;102359.94;10469013;28;20515;-85
2023/05/30 11:25:37;;;;;;;14.43;6.77;;;;;;;25.50;40.48;102360.69;10469692;28;20119;-84
2023/05/30 11:30:37;;;;;;;7.67;6.13;;;;;;;26.03;38.84;102363.78;10485475;28;20133;-83
2023/05/30 11:35:38;;;;;;;13.00;5.37;;;;;;;25.84;36.25;102348.44;10484600;28;20102;-85
2023/05/30 11:40:42;;;;;;;13.57;6.10;;;;;;;25.61;41.61;102352.75;10484161;28;20036;-82
2023/05/30 11:45:45;;;;;;;9.63;5.68;;;;;;;25.90;37.76;102346.72;10487180;28;20029;-82
2023/05/30 11:50:46;;;;;;;23.38;7.30;;;;;;;25.77;39.72;102348.41;10451633;28;20400;-84
2023/05/30 11:55:48;;;;;;;14.87;5.97;;;;;;;26.09;38.39;102336.13;10518279;28;20071;-85
2023/05/30 12:00:48;;;;;;;9.48;5.70;;;;;;;25.58;39.65;102327.69;10484768;28;20267;-82
2023/05/30 12:05:49;;;;;;;15.30;6.87;;;;;;;25.62;37.07;102333.09;10483983;28;20896;-83
2023/05/30 12:10:49;;;;;;;18.33;5.37;;;;;;;25.46;39.79;102326.69;10485089;28;20068;-82
2023/05/30 12:15:51;;;;;;;18.90;6.17;;;;;;;26.00;37.37;102325.31;10484800;28;20050;-84
2023/05/30 12:20:51;;;;;;;;;;;;;;;26.08;39.39;102316.44;10467997;28;20043;-81
2023/05/30 12:25:52;;;;;;;9.30;5.87;;;;;;;26.53;36.24;102313.09;10485021;28;19927;-83
2023/05/30 12:30:53;;;;;;;11.53;5.37;;;;;;;26.31;38.99;102302.25;10516640;28;20283;-83
2023/05/30 12:35:54;;;;;;;10.30;5.88;;;;;;;26.47;37.37;102296.97;10467271;28;20274;-82
2023/05/30 12:40:55;;;;;;;13.93;7.43;;;;;;;26.22;38.77;102287.03;10482911;28;20380;-82
2023/05/30 12:46:03;;;;;;;12.40;6.27;;;;;;;26.09;39.88;102279.78;10482815;28;20076;-83
2023/05/30 12:51:04;;;;;;;9.55;4.97;;;;;;;25.20;40.62;102279.13;10465826;28;20032;-81
2023/05/30 12:56:04;;;;;;;10.17;5.90;;;;;;;24.38;43.85;102278.22;10482107;28;20131;-80
2023/05/30 13:01:05;;;;;;;12.13;6.13;;;;;;;24.40;43.16;102273.78;10483138;28;20041;-78
2023/05/30 13:06:06;;;;;;;20.73;5.70;;;;;;;24.75;44.06;102272.41;10448413;28;20372;-83
2023/05/30 13:11:06;;;;;;;17.90;6.43;;;;;;;25.53;43.77;102263.34;10480980;28;20442;-80
2023/05/30 13:16:07;;;;;;;13.80;5.07;;;;;;;25.97;41.71;102263.63;10480812;28;20532;-82
2023/05/30 13:21:07;;;;;;;7.63;4.47;;;;;;;25.78;41.54;102266.19;10480762;28;20045;-81
2023/05/30 13:26:10;;;;;;;11.50;5.23;;;;;;;25.91;41.64;102256.41;10483451;28;20113;-85
2023/05/30 13:31:10;;;;;;;38.55;9.88;;;;;;;25.80;42.28;102248.34;10464740;28;20376;-83
2023/05/30 13:36:11;;;;;;;13.30;7.07;;;;;;;25.77;41.61;102237.59;10480349;28;20075;-79
2023/05/30 13:41:11;;;;;;;13.67;5.57;;;;;;;26.16;42.14;102240.50;10481977;28;20439;-82
2023/05/30 13:46:12;;;;;;;10.73;5.70;;;;;;;25.99;44.17;102243.06;10482188;28;20166;-82
2023/05/30 13:51:13;;;;;;;8.90;5.00;;;;;;;26.15;41.30;102226.19;10444664;28;20055;-84
2023/05/30 13:56:13;;;;;;;8.67;5.13;;;;;;;25.87;42.58;102234.06;10422534;28;20463;-83
2023/05/30 14:01:14;;;;;;;13.80;6.13;;;;;;;25.91;42.65;102232.28;10441663;28;20086;-85
2023/05/30 14:06:14;;;;;;;13.83;6.47;;;;;;;25.86;43.94;102220.63;10441570;28;20154;-83
2023/05/30 14:11:15;;;;;;;15.57;6.80;;;;;;;26.10;44.89;102217.19;10438852;28;20041;-81
2023/05/30 14:16:16;;;;;;;13.77;5.47;;;;;;;25.86;44.80;102221.56;10444799;28;20459;-81
2023/05/30 14:21:16;;;;;;;7.87;4.50;;;;;;;25.48;43.24;102215.06;10429502;28;20134;-80
2023/05/30 14:26:17;;;;;;;12.57;5.03;;;;;;;25.01;45.43;102202.16;10446959;28;20040;-82
2023/05/30 14:31:17;;;;;;;14.93;6.63;;;;;;;24.69;47.53;102197.38;10440828;28;20037;-80
2023/05/30 14:36:18;;;;;;;12.53;4.57;;;;;;;23.79;49.96;102206.97;10404883;28;20134;-83
2023/05/30 14:41:18;;;;;;;10.63;5.77;;;;;;;23.59;50.07;102199.56;10443690;28;20140;-79
2023/05/30 14:46:19;;;;;;;23.17;6.50;;;;;;;23.62;51.34;102188.94;10445922;28;20500;-82
2023/05/30 14:51:19;;;;;;;19.93;4.83;;;;;;;23.55;49.57;102193.31;10483234;28;20465;-80
2023/05/30 14:56:20;;;;;;;9.17;5.13;;;;;;;23.17;51.34;102186.44;10488540;28;20081;-81
2023/05/30 15:01:21;;;;;;;13.63;5.10;;;;;;;22.80;53.49;102183.16;10487305;28;20032;-84
2023/05/30 15:06:21;;;;;;;15.93;6.37;;;;;;;22.14;57.94;102180.09;10470036;28;20079;-82
2023/05/30 15:11:22;;;;;;;21.77;5.77;;;;;;;21.76;56.27;102185.50;10518693;28;20674;-81
2023/05/30 15:16:24;;;;;;;15.23;5.57;;;;;;;21.58;58.40;102177.97;10481608;28;20051;-81
2023/05/30 15:21:25;;;;;;;9.32;5.68;;;;;;;21.26;58.08;102169.28;10515649;28;20028;-82
2023/05/30 15:26:27;;;;;;;10.65;5.97;;;;;;;21.09;61.94;102163.53;10481786;28;20033;-84
2023/05/30 15:31:28;;;;;;;9.05;5.80;;;;;;;20.93;67.09;102161.34;10519119;27;20037;-87
2023/05/30 15:36:29;;;;;;;14.40;5.18;;;;;;;21.00;65.62;102159.75;10443324;28;20037;-91
2023/05/30 15:41:31;;;;;;;14.23;5.13;;;;;;;20.93;65.20;102164.00;10427099;28;20049;-82
2023/05/30 15:46:31;;;;;;;12.23;4.73;;;;;;;20.81;65.27;102161.94;10411449;28;20764;-82
2023/05/30 15:51:32;;;;;;;11.38;4.80;;;;;;;20.71;68.26;102163.41;10407410;28;20060;-83
2023/05/30 15:56:32;;;;;;;12.20;4.68;;;;;;;20.59;69.71;102164.00;10442409;28;20037;-81
2023/05/30 16:01:32;;;;;;;25.10;7.53;;;;;;;20.65;68.96;102164.16;10407124;28;20053;-80
2023/05/30 16:06:33;;;;;;;9.93;4.55;;;;;;;20.42;67.76;102162.66;10440713;28;20564;-81
2023/05/30 16:11:34;;;;;;;10.00;4.13;;;;;;;20.21;67.41;102154.09;10440149;28;20041;-82
2023/05/30 16:16:34;;;;;;;10.65;5.05;;;;;;;19.94;67.76;102157.75;10424995;28;20037;-81
2023/05/30 16:21:36;;;;;;;12.60;4.60;;;;;;;20.02;72.35;102147.38;10442306;28;20434;-80
2023/05/30 16:26:37;;;;;;;10.73;5.28;;;;;;;20.04;71.44;102158.94;10442327;28;20108;-82
2023/05/30 16:31:37;;;;;;;9.50;4.60;;;;;;;19.88;73.10;102146.03;10409246;28;20121;-81
2023/05/30 16:36:38;;;;;;;7.43;4.50;;;;;;;19.91;75.40;102144.38;10430467;28;20067;-83
2023/05/30 16:41:39;;;;;;;6.73;4.60;;;;;;;19.77;74.45;102137.72;10483556;28;20098;-83
2023/05/30 16:46:40;;;;;;;7.10;4.03;;;;;;;19.66;75.98;102146.28;10479074;28;20060;-83
2023/05/30 16:51:41;;;;;;;7.77;3.63;;;;;;;19.61;77.60;102139.03;10467679;28;20114;-82
2023/05/30 16:56:41;;;;;;;7.78;4.18;;;;;;;19.61;82.38;102142.56;10466642;28;20275;-82
2023/05/30 17:01:42;;;;;;;9.23;4.05;;;;;;;19.52;82.81;102152.91;10482596;28;20517;-84
2023/05/30 17:06:42;;;;;;;11.98;5.90;;;;;;;19.36;87.57;102148.91;10481775;28;20051;-82
2023/05/30 17:11:43;;;;;;;11.90;6.00;;;;;;;19.17;91.42;102160.66;10480154;28;20076;-81
2023/05/30 17:16:43;;;;;;;13.32;6.18;;;;;;;19.01;97.43;102165.44;10466006;28;20509;-82
2023/05/30 17:21:44;;;;;;;16.25;5.72;;;;;;;18.78;100.00;102167.31;10470768;28;20123;-82
2023/05/30 17:26:44;;;;;;;11.18;5.53;;;;;;;18.61;100.00;102175.56;10483526;28;20521;-81
2023/05/30 17:31:45;;;;;;;12.55;5.20;;;;;;;18.33;100.00;102171.00;10496040;28;20094;-80
2023/05/30 17:36:45;;;;;;;15.00;6.97;;;;;;;18.01;100.00;102176.03;10440100;28;20109;-81
2023/05/30 17:41:47;;;;;;;15.10;6.55;;;;;;;17.71;100.00;102185.47;10450532;28;20115;-81
2023/05/30 17:46:48;;;;;;;8.90;6.25;;;;;;;17.53;100.00;102190.03;10448746;28;20021;-81
2023/05/30 17:51:49;;;;;;;12.48;6.68;;;;;;;17.32;100.00;102197.16;10465441;28;20044;-81
2023/05/30 17:56:49;;;;;;;13.27;7.57;;;;;;;17.11;100.00;102197.19;10480994;28;20131;-79
2023/05/30 18:01:50;;;;;;;9.77;7.50;;;;;;;16.92;100.00;102203.38;10489038;28;20123;-82
2023/05/30 18:06:50;;;;;;;9.55;5.47;;;;;;;16.76;100.00;102203.56;10489153;28;20506;-83
2023/05/30 18:11:51;;;;;;;8.80;6.05;;;;;;;16.51;100.00;102195.47;10522151;28;20029;-83
2023/05/30 18:16:52;;;;;;;13.60;6.40;;;;;;;16.35;100.00;102200.91;10486950;28;20136;-82
2023/05/30 18:21:53;;;;;;;10.57;6.07;;;;;;;16.23;100.00;102209.16;10486136;28;20068;-81
2023/05/30 18:26:53;;;;;;;14.00;7.20;;;;;;;16.08;100.00;102204.97;10470511;28;20189;-82
2023/05/30 18:31:54;;;;;;;11.75;7.43;;;;;;;15.79;100.00;102203.59;10441649;28;20468;-81
2023/05/30 18:36:55;;;;;;;8.57;5.63;;;;;;;15.71;100.00;102198.84;10487079;28;20444;-84
2023/05/30 18:41:56;;;;;;;10.30;5.40;;;;;;;15.57;100.00;102203.44;10484295;27;20153;-86
2023/05/30 18:46:56;;;;;;;10.40;6.13;;;;;;;15.41;100.00;102199.19;10473554;28;20075;-82
2023/05/30 18:51:57;;;;;;;8.15;5.45;;;;;;;15.20;100.00;102209.56;10458069;28;20492;-84
2023/05/30 18:56:57;;;;;;;11.18;5.85;;;;;;;15.09;100.00;102209.03;10479170;28;20123;-86
2023/05/30 19:01:58;;;;;;;8.63;5.30;;;;;;;14.88;100.00;102210.56;10472850;28;20037;-84
2023/05/30 19:06:58;;;;;;;10.95;5.70;;;;;;;14.60;100.00;102214.38;10487838;28;20036;-82
2023/05/30 19:11:59;;;;;;;11.85;5.10;;;;;;;14.58;100.00;102211.63;10486549;28;20040;-84
2023/05/30 19:16:59;;;;;;;9.07;4.53;;;;;;;14.44;100.00;102213.56;10449804;28;20127;-85
2023/05/30 19:22:00;;;;;;;6.93;4.68;;;;;;;14.28;100.00;102217.09;10477414;28;20458;-85
2023/05/30 19:27:00;;;;;;;7.38;5.28;;;;;;;14.06;100.00;102217.66;10485514;28;20139;-85
2023/05/30 19:32:01;;;;;;;10.48;5.35;;;;;;;14.05;100.00;102216.72;10482055;28;20123;-83
2023/05/30 19:37:01;;;;;;;8.57;4.75;;;;;;;13.97;100.00;102219.78;10486353;28;20063;-82
2023/05/30 19:42:02;;;;;;;8.00;5.57;;;;;;;13.78;100.00;102224.91;10485014;28;20039;-82
2023/05/30 19:47:03;;;;;;;6.90;5.00;;;;;;;13.63;100.00;102226.66;10476759;28;20044;-84
2023/05/30 19:52:04;;;;;;;8.65;5.50;;;;;;;13.41;100.00;102224.53;10479409;28;20036;-85
2023/05/30 19:57:05;;;;;;;10.07;5.72;;;;;;;13.22;100.00;102236.59;10483409;28;20369;-85
2023/05/30 20:02:06;;;;;;;8.15;5.25;;;;;;;12.99;100.00;102250.97;10479564;28;20032;-83
2023/05/30 20:07:06;;;;;;;7.57;5.70;;;;;;;12.75;100.00;102254.88;10483844;28;20041;-86
2023/05/30 20:12:07;;;;;;;8.75;5.22;;;;;;;12.58;100.00;102264.31;10484503;28;20036;-86
2023/05/30 20:17:08;;;;;;;7.60;4.78;;;;;;;12.43;100.00;102259.03;10482833;28;20039;-86
2023/05/30 20:22:08;;;;;;;8.48;4.65;;;;;;;12.36;100.00;102266.41;10473717;28;20044;-85
2023/05/30 20:27:09;;;;;;;7.63;4.65;;;;;;;12.42;100.00;102270.34;10443072;28;20120;-85
2023/05/30 20:32:09;;;;;;;6.50;4.00;;;;;;;12.50;100.00;102270.81;10442979;28;20047;-84
2023/05/30 20:37:10;;;;;;;8.02;5.05;;;;;;;12.36;100.00;102264.72;10440215;28;20148;-80
2023/05/30 20:42:10;;;;;;;7.13;4.85;;;;;;;12.29;100.00;102265.16;10384468;28;20238;-87
2023/05/30 20:47:11;;;;;;;9.68;4.28;;;;;;;12.19;100.00;102258.38;10422559;28;20037;-87
2023/05/30 20:52:12;;;;;;;10.70;4.53;;;;;;;12.14;100.00;102258.13;10441258;28;20108;-87
2023/05/30 20:57:16;;;;;;;8.48;4.70;;;;;;;12.07;100.00;102253.28;10415855;28;20046;-87
2023/05/30 21:02:17;;;;;;;9.68;4.55;;;;;;;11.92;100.00;102262.75;10440071;28;20037;-87
2023/05/30 21:07:17;;;;;;;9.07;4.63;;;;;;;11.72;100.00;102263.28;10479738;28;20047;-87
2023/05/30 21:12:18;;;;;;;6.63;4.05;;;;;;;11.71;100.00;102271.06;10482266;28;20501;-86
2023/05/30 21:17:18;;;;;;;8.27;4.50;;;;;;;11.55;100.00;102274.38;10488199;28;20125;-87
2023/05/30 21:22:19;;;;;;;8.50;4.60;;;;;;;11.41;100.00;102284.84;10488764;28;20123;-82
2023/05/30 21:27:19;;;;;;;10.13;5.38;;;;;;;11.42;100.00;102283.16;10490025;28;20044;-84
2023/05/30 21:32:20;;;;;;;7.88;5.03;;;;;;;11.38;100.00;102281.13;10491319;28;20068;-85
2023/05/30 21:37:21;;;;;;;10.32;5.00;;;;;;;11.48;100.00;102275.69;10506739;28;20075;-85
2023/05/30 21:42:21;;;;;;;12.10;5.32;;;;;;;11.46;100.00;102285.16;10490743;28;20093;-84
2023/05/30 21:47:21;;;;;;;7.80;4.85;;;;;;;11.51;100.00;102283.75;10488895;28;20060;-83
2023/05/30 21:52:24;;;;;;;8.85;5.88;;;;;;;11.43;100.00;102293.72;10490437;28;20119;-83
2023/05/30 21:57:24;;;;;;;;;;;;;;;11.26;100.00;102287.34;10459635;28;20035;-83
2023/05/30 22:02:25;;;;;;;8.73;5.95;;;;;;;11.22;100.00;102294.88;10472414;28;19920;-84
2023/05/30 22:07:25;;;;;;;10.98;7.00;;;;;;;11.19;100.00;102274.66;10466611;28;20033;-84
2023/05/30 22:12:26;;;;;;;11.90;6.22;;;;;;;11.16;100.00;102282.28;10472408;28;20036;-83
2023/05/30 22:17:26;;;;;;;13.38;6.28;;;;;;;11.08;100.00;102288.72;10488795;28;20036;-83
2023/05/30 22:22:27;;;;;;;11.55;6.40;;;;;;;11.00;100.00;102290.81;10487285;28;20112;-83
2023/05/30 22:27:28;;;;;;;9.35;5.25;;;;;;;10.99;100.00;102292.53;10489267;28;20043;-83
2023/05/30 22:32:28;;;;;;;17.15;8.07;;;;;;;10.84;100.00;102292.38;10487122;28;20039;-83
2023/05/30 22:37:28;;;;;;;10.68;6.47;;;;;;;10.69;100.00;102299.16;10489174;28;20075;-83
2023/05/30 22:42:32;;;;;;;16.98;7.38;;;;;;;10.65;100.00;102315.44;10472893;28;20473;-83
2023/05/30 22:47:32;;;;;;;10.07;6.38;;;;;;;10.60;100.00;102309.91;10448291;28;20374;-84
2023/05/30 22:52:33;;;;;;;27.85;10.23;;;;;;;10.65;100.00;102311.13;10453991;28;20040;-83